sensor_id;sensor_type;location;lat;lon;timestamp;pressure;altitude;pressure_sealevel;temperature;humidity
76128;BME280;64873;50.102;14.434;2023-11-21T00:02:04;98646.56;;;8.95;78.63
76128;BME280;64873;50.102;14.434;2023-11-21T00:04:30;98648.19;;;8.96;79.02
76128;BME280;64873;50.102;14.434;2023-11-21T00:06:56;98648.00;;;8.97;78.88
76128;BME280;64873;50.102;14.434;2023-11-21T00:09:21;98647.59;;;8.94;78.91
76128;BME280;64873;50.102;14.434;2023-11-21T00:11:47;98640.25;;;8.89;79.37
76128;BME280;64873;50.102;14.434;2023-11-21T00:14:12;98643.59;;;8.85;79.45
76128;BME280;64873;50.102;14.434;2023-11-21T00:16:40;98639.53;;;8.82;79.38
76128;BME280;64873;50.102;14.434;2023-11-21T00:19:05;98633.81;;;8.78;79.56
76128;BME280;64873;50.102;14.434;2023-11-21T00:21:30;98639.28;;;8.84;79.74
76128;BME280;64873;50.102;14.434;2023-11-21T00:23:56;98642.69;;;8.91;79.70
76128;BME280;64873;50.102;14.434;2023-11-21T00:26:21;98646.22;;;8.91;79.50
76128;BME280;64873;50.102;14.434;2023-11-21T00:28:47;98647.06;;;8.85;79.61
76128;BME280;64873;50.102;14.434;2023-11-21T00:31:12;98650.78;;;8.84;79.58
76128;BME280;64873;50.102;14.434;2023-11-21T00:33:38;98648.50;;;8.88;79.89
76128;BME280;64873;50.102;14.434;2023-11-21T00:36:04;98644.34;;;8.92;79.42
76128;BME280;64873;50.102;14.434;2023-11-21T00:38:31;98641.22;;;8.95;79.29
76128;BME280;64873;50.102;14.434;2023-11-21T00:40:56;98658.84;;;8.96;79.02
76128;BME280;64873;50.102;14.434;2023-11-21T00:43:22;98648.25;;;8.89;79.59
76128;BME280;64873;50.102;14.434;2023-11-21T00:45:48;98645.59;;;8.89;79.07
76128;BME280;64873;50.102;14.434;2023-11-21T00:48:14;98658.03;;;8.95;79.07
76128;BME280;64873;50.102;14.434;2023-11-21T00:50:40;98651.16;;;8.88;79.84
76128;BME280;64873;50.102;14.434;2023-11-21T00:53:06;98641.38;;;8.81;80.25
76128;BME280;64873;50.102;14.434;2023-11-21T00:55:32;98643.16;;;8.88;80.48
76128;BME280;64873;50.102;14.434;2023-11-21T00:57:58;98645.09;;;8.80;80.46
76128;BME280;64873;50.102;14.434;2023-11-21T01:00:23;98638.97;;;8.73;80.87
76128;BME280;64873;50.102;14.434;2023-11-21T01:02:49;98638.56;;;8.76;80.66
76128;BME280;64873;50.102;14.434;2023-11-21T01:05:14;98652.47;;;8.78;80.86
76128;BME280;64873;50.102;14.434;2023-11-21T01:07:40;98656.09;;;8.84;80.04
76128;BME280;64873;50.102;14.434;2023-11-21T01:10:06;98654.53;;;8.76;80.38
76128;BME280;64873;50.102;14.434;2023-11-21T01:12:35;98657.06;;;8.71;80.99
76128;BME280;64873;50.102;14.434;2023-11-21T01:15:01;98645.72;;;8.58;81.21
76128;BME280;64873;50.102;14.434;2023-11-21T01:17:26;98656.16;;;8.59;81.69
76128;BME280;64873;50.102;14.434;2023-11-21T01:19:52;98660.16;;;8.68;81.45
76128;BME280;64873;50.102;14.434;2023-11-21T01:22:17;98664.47;;;8.69;81.52
76128;BME280;64873;50.102;14.434;2023-11-21T01:24:47;98657.94;;;8.65;81.62
76128;BME280;64873;50.102;14.434;2023-11-21T01:27:12;98651.41;;;8.61;81.43
76128;BME280;64873;50.102;14.434;2023-11-21T01:29:38;98661.63;;;8.64;81.21
76128;BME280;64873;50.102;14.434;2023-11-21T01:32:03;98656.31;;;8.64;81.50
76128;BME280;64873;50.102;14.434;2023-11-21T01:34:29;98664.28;;;8.64;81.47
76128;BME280;64873;50.102;14.434;2023-11-21T01:36:55;98660.81;;;8.64;80.98
76128;BME280;64873;50.102;14.434;2023-11-21T01:39:21;98657.50;;;8.68;80.67
76128;BME280;64873;50.102;14.434;2023-11-21T01:41:50;98667.34;;;8.68;80.94
76128;BME280;64873;50.102;14.434;2023-11-21T01:44:16;98666.72;;;8.66;80.86
76128;BME280;64873;50.102;14.434;2023-11-21T01:46:42;98667.53;;;8.66;81.17
76128;BME280;64873;50.102;14.434;2023-11-21T01:49:09;98663.25;;;8.65;80.69
76128;BME280;64873;50.102;14.434;2023-11-21T01:51:38;98666.50;;;8.67;81.01
76128;BME280;64873;50.102;14.434;2023-11-21T01:54:05;98665.34;;;8.63;80.34
76128;BME280;64873;50.102;14.434;2023-11-21T01:56:30;98676.78;;;8.64;81.17
76128;BME280;64873;50.102;14.434;2023-11-21T01:58:57;98678.47;;;8.58;81.29
76128;BME280;64873;50.102;14.434;2023-11-21T02:01:22;98678.47;;;8.58;81.60
76128;BME280;64873;50.102;14.434;2023-11-21T02:03:48;98678.00;;;8.68;81.64
76128;BME280;64873;50.102;14.434;2023-11-21T02:06:14;98668.72;;;8.52;82.10
76128;BME280;64873;50.102;14.434;2023-11-21T02:08:39;98664.78;;;8.54;81.67
76128;BME280;64873;50.102;14.434;2023-11-21T02:11:05;98675.00;;;8.58;81.71
76128;BME280;64873;50.102;14.434;2023-11-21T02:13:31;98669.47;;;8.59;81.99
76128;BME280;64873;50.102;14.434;2023-11-21T02:15:57;98675.66;;;8.53;82.29
76128;BME280;64873;50.102;14.434;2023-11-21T02:18:23;98665.44;;;8.50;82.02
76128;BME280;64873;50.102;14.434;2023-11-21T02:20:48;98670.50;;;8.58;81.97
76128;BME280;64873;50.102;14.434;2023-11-21T02:23:14;98658.56;;;8.61;82.20
76128;BME280;64873;50.102;14.434;2023-11-21T02:25:39;98661.13;;;8.49;81.97
76128;BME280;64873;50.102;14.434;2023-11-21T02:28:07;98658.63;;;8.54;81.81
76128;BME280;64873;50.102;14.434;2023-11-21T02:30:33;98662.63;;;8.45;82.21
76128;BME280;64873;50.102;14.434;2023-11-21T02:33:02;98662.19;;;8.48;81.92
76128;BME280;64873;50.102;14.434;2023-11-21T02:35:28;98667.66;;;8.53;81.71
76128;BME280;64873;50.102;14.434;2023-11-21T02:37:54;98668.72;;;8.52;82.71
76128;BME280;64873;50.102;14.434;2023-11-21T02:40:19;98661.31;;;8.54;82.40
76128;BME280;64873;50.102;14.434;2023-11-21T02:42:50;98658.69;;;8.47;82.23
76128;BME280;64873;50.102;14.434;2023-11-21T02:45:21;98656.53;;;8.38;82.38
76128;BME280;64873;50.102;14.434;2023-11-21T02:47:47;98665.94;;;8.40;82.45
76128;BME280;64873;50.102;14.434;2023-11-21T02:50:14;98668.72;;;8.52;82.60
76128;BME280;64873;50.102;14.434;2023-11-21T02:52:39;98662.19;;;8.48;82.65
76128;BME280;64873;50.102;14.434;2023-11-21T02:55:08;98654.88;;;8.62;82.00
76128;BME280;64873;50.102;14.434;2023-11-21T02:57:33;98659.28;;;8.74;81.41
76128;BME280;64873;50.102;14.434;2023-11-21T02:59:59;98653.06;;;8.62;81.67
76128;BME280;64873;50.102;14.434;2023-11-21T03:02:25;98650.41;;;8.62;81.84
76128;BME280;64873;50.102;14.434;2023-11-21T03:04:51;98644.13;;;8.50;81.86
76128;BME280;64873;50.102;14.434;2023-11-21T03:07:16;98648.28;;;8.46;82.42
76128;BME280;64873;50.102;14.434;2023-11-21T03:09:44;98658.31;;;8.44;82.71
76128;BME280;64873;50.102;14.434;2023-11-21T03:12:10;98661.81;;;8.44;83.00
76128;BME280;64873;50.102;14.434;2023-11-21T03:14:37;98658.75;;;8.41;82.61
76128;BME280;64873;50.102;14.434;2023-11-21T03:17:03;98658.13;;;8.45;82.82
76128;BME280;64873;50.102;14.434;2023-11-21T03:19:30;98657.66;;;8.48;82.44
76128;BME280;64873;50.102;14.434;2023-11-21T03:21:56;98660.00;;;8.63;81.57
76128;BME280;64873;50.102;14.434;2023-11-21T03:24:21;98659.69;;;8.53;81.71
76128;BME280;64873;50.102;14.434;2023-11-21T03:26:48;98661.19;;;8.42;81.96
76128;BME280;64873;50.102;14.434;2023-11-21T03:29:13;98661.44;;;8.41;82.07
76128;BME280;64873;50.102;14.434;2023-11-21T03:31:40;98655.66;;;8.44;81.55
76128;BME280;64873;50.102;14.434;2023-11-21T03:34:05;98661.81;;;8.44;81.66
76128;BME280;64873;50.102;14.434;2023-11-21T03:36:31;98663.28;;;8.40;81.56
76128;BME280;64873;50.102;14.434;2023-11-21T03:38:57;98665.94;;;8.40;81.89
76128;BME280;64873;50.102;14.434;2023-11-21T03:41:22;98663.50;;;8.32;81.90
76128;BME280;64873;50.102;14.434;2023-11-21T03:43:48;98673.88;;;8.47;81.69
76128;BME280;64873;50.102;14.434;2023-11-21T03:46:13;98667.59;;;8.35;81.44
76128;BME280;64873;50.102;14.434;2023-11-21T03:48:39;98667.19;;;8.31;82.05
76128;BME280;64873;50.102;14.434;2023-11-21T03:51:04;98665.56;;;8.30;82.28
76128;BME280;64873;50.102;14.434;2023-11-21T03:53:30;98670.66;;;8.38;81.77
76128;BME280;64873;50.102;14.434;2023-11-21T03:55:55;98675.78;;;8.40;82.23
76128;BME280;64873;50.102;14.434;2023-11-21T03:58:21;98665.78;;;8.28;81.97
76128;BME280;64873;50.102;14.434;2023-11-21T04:00:47;98677.03;;;8.31;81.90
76128;BME280;64873;50.102;14.434;2023-11-21T04:03:14;98684.19;;;8.37;81.69
76128;BME280;64873;50.102;14.434;2023-11-21T04:05:40;98685.22;;;8.36;81.30
76128;BME280;64873;50.102;14.434;2023-11-21T04:08:06;98686.06;;;8.29;82.15
76128;BME280;64873;50.102;14.434;2023-11-21T04:10:32;98686.03;;;8.36;81.86
76128;BME280;64873;50.102;14.434;2023-11-21T04:12:57;98677.47;;;8.27;82.15
76128;BME280;64873;50.102;14.434;2023-11-21T04:15:23;98680.34;;;8.26;82.42
76128;BME280;64873;50.102;14.434;2023-11-21T04:17:49;98673.94;;;8.34;81.60
76128;BME280;64873;50.102;14.434;2023-11-21T04:20:14;98682.34;;;8.37;81.37
76128;BME280;64873;50.102;14.434;2023-11-21T04:22:40;98683.16;;;8.38;81.55
76128;BME280;64873;50.102;14.434;2023-11-21T04:25:10;98684.94;;;8.44;81.40
76128;BME280;64873;50.102;14.434;2023-11-21T04:27:37;98693.97;;;8.43;81.34
76128;BME280;64873;50.102;14.434;2023-11-21T04:30:03;98691.91;;;8.45;80.80
76128;BME280;64873;50.102;14.434;2023-11-21T04:32:28;98699.28;;;8.43;81.01
76128;BME280;64873;50.102;14.434;2023-11-21T04:34:54;98693.00;;;8.31;81.31
76128;BME280;64873;50.102;14.434;2023-11-21T04:37:19;98692.34;;;8.42;81.09
76128;BME280;64873;50.102;14.434;2023-11-21T04:39:45;98704.84;;;8.35;81.29
76128;BME280;64873;50.102;14.434;2023-11-21T04:42:10;98696.69;;;8.36;81.69
76128;BME280;64873;50.102;14.434;2023-11-21T04:44:35;98704.78;;;8.48;81.05
76128;BME280;64873;50.102;14.434;2023-11-21T04:47:01;98706.84;;;8.46;81.07
76128;BME280;64873;50.102;14.434;2023-11-21T04:49:26;98704.38;;;8.51;81.01
76128;BME280;64873;50.102;14.434;2023-11-21T04:51:52;98706.69;;;8.66;80.16
76128;BME280;64873;50.102;14.434;2023-11-21T04:54:17;98700.13;;;8.68;80.24
76128;BME280;64873;50.102;14.434;2023-11-21T04:56:43;98708.94;;;8.69;79.57
76128;BME280;64873;50.102;14.434;2023-11-21T04:59:08;98712.47;;;8.63;80.21
76128;BME280;64873;50.102;14.434;2023-11-21T05:01:34;98705.38;;;8.50;80.66
76128;BME280;64873;50.102;14.434;2023-11-21T05:04:00;98709.94;;;8.43;81.17
76128;BME280;64873;50.102;14.434;2023-11-21T05:06:25;98694.59;;;8.38;80.92
76128;BME280;64873;50.102;14.434;2023-11-21T05:08:51;98707.63;;;8.53;80.75
76128;BME280;64873;50.102;14.434;2023-11-21T05:11:24;98707.72;;;8.40;81.02
76128;BME280;64873;50.102;14.434;2023-11-21T05:13:49;98714.41;;;8.49;80.77
76128;BME280;64873;50.102;14.434;2023-11-21T05:16:15;98697.97;;;8.27;81.43
76128;BME280;64873;50.102;14.434;2023-11-21T05:18:41;98715.22;;;8.49;80.64
76128;BME280;64873;50.102;14.434;2023-11-21T05:21:06;98698.13;;;8.39;81.09
76128;BME280;64873;50.102;14.434;2023-11-21T05:23:32;98708.97;;;8.37;80.55
76128;BME280;64873;50.102;14.434;2023-11-21T05:25:59;98707.31;;;8.36;80.80
76128;BME280;64873;50.102;14.434;2023-11-21T05:28:24;98715.94;;;8.32;81.29
76128;BME280;64873;50.102;14.434;2023-11-21T05:30:50;98705.91;;;8.34;81.33
76128;BME280;64873;50.102;14.434;2023-11-21T05:33:16;98719.94;;;8.47;80.67
76128;BME280;64873;50.102;14.434;2023-11-21T05:35:41;98711.44;;;8.39;80.74
76128;BME280;64873;50.102;14.434;2023-11-21T05:38:07;98720.41;;;8.38;80.94
76128;BME280;64873;50.102;14.434;2023-11-21T05:40:32;98730.06;;;8.39;80.92
76128;BME280;64873;50.102;14.434;2023-11-21T05:42:58;98721.88;;;8.34;81.01
76128;BME280;64873;50.102;14.434;2023-11-21T05:45:24;98723.31;;;8.36;80.97
76128;BME280;64873;50.102;14.434;2023-11-21T05:47:49;98736.28;;;8.19;81.38
76128;BME280;64873;50.102;14.434;2023-11-21T05:50:16;98721.25;;;8.32;80.84
76128;BME280;64873;50.102;14.434;2023-11-21T05:52:46;98731.09;;;8.31;81.09
76128;BME280;64873;50.102;14.434;2023-11-21T05:55:12;98736.22;;;8.33;80.88
76128;BME280;64873;50.102;14.434;2023-11-21T05:57:39;98735.41;;;8.25;81.05
76128;BME280;64873;50.102;14.434;2023-11-21T06:00:06;98728.41;;;8.38;80.79
76128;BME280;64873;50.102;14.434;2023-11-21T06:02:46;98723.72;;;8.33;80.93
76128;BME280;64873;50.102;14.434;2023-11-21T06:05:12;98728.25;;;8.26;80.97
76128;BME280;64873;50.102;14.434;2023-11-21T06:07:37;98733.75;;;8.31;80.84
76128;BME280;64873;50.102;14.434;2023-11-21T06:10:07;98736.38;;;8.38;81.02
76128;BME280;64873;50.102;14.434;2023-11-21T06:12:37;98737.28;;;8.25;80.79
76128;BME280;64873;50.102;14.434;2023-11-21T06:15:03;98744.53;;;8.11;81.07
76128;BME280;64873;50.102;14.434;2023-11-21T06:17:33;98746.06;;;8.25;81.12
76128;BME280;64873;50.102;14.434;2023-11-21T06:20:10;98754.13;;;8.12;81.94
76128;BME280;64873;50.102;14.434;2023-11-21T06:22:40;98743.66;;;8.17;81.81
76128;BME280;64873;50.102;14.434;2023-11-21T06:25:06;98750.34;;;8.26;81.19
76128;BME280;64873;50.102;14.434;2023-11-21T06:27:33;98752.88;;;8.21;81.26
76128;BME280;64873;50.102;14.434;2023-11-21T06:29:59;98765.75;;;8.24;80.92
76128;BME280;64873;50.102;14.434;2023-11-21T06:32:24;98762.47;;;8.22;81.53
76128;BME280;64873;50.102;14.434;2023-11-21T06:34:51;98757.03;;;8.11;81.16
76128;BME280;64873;50.102;14.434;2023-11-21T06:37:20;98760.63;;;8.23;81.22
76128;BME280;64873;50.102;14.434;2023-11-21T06:39:48;98764.75;;;8.19;81.05
76128;BME280;64873;50.102;14.434;2023-11-21T06:42:14;98767.25;;;8.07;81.91
76128;BME280;64873;50.102;14.434;2023-11-21T06:44:40;98784.59;;;8.23;81.37
76128;BME280;64873;50.102;14.434;2023-11-21T06:47:06;98785.59;;;8.28;80.52
76128;BME280;64873;50.102;14.434;2023-11-21T06:49:32;98793.34;;;8.30;81.00
76128;BME280;64873;50.102;14.434;2023-11-21T06:51:58;98785.22;;;8.18;80.83
76128;BME280;64873;50.102;14.434;2023-11-21T06:54:24;98785.41;;;8.23;81.18
76128;BME280;64873;50.102;14.434;2023-11-21T06:56:49;98791.31;;;8.25;81.58
76128;BME280;64873;50.102;14.434;2023-11-21T06:59:15;98775.16;;;8.20;80.94
76128;BME280;64873;50.102;14.434;2023-11-21T07:01:41;98772.50;;;8.27;80.59
76128;BME280;64873;50.102;14.434;2023-11-21T07:04:07;98778.22;;;8.24;80.40
76128;BME280;64873;50.102;14.434;2023-11-21T07:06:32;98785.13;;;8.32;80.64
76128;BME280;64873;50.102;14.434;2023-11-21T07:08:58;98788.41;;;8.34;82.17
76128;BME280;64873;50.102;14.434;2023-11-21T07:11:25;98770.25;;;8.24;80.38
76128;BME280;64873;50.102;14.434;2023-11-21T07:13:50;98781.47;;;8.26;80.24
76128;BME280;64873;50.102;14.434;2023-11-21T07:16:16;98778.81;;;8.33;80.77
76128;BME280;64873;50.102;14.434;2023-11-21T07:18:42;98791.88;;;8.41;80.09
76128;BME280;64873;50.102;14.434;2023-11-21T07:21:08;98792.06;;;8.46;79.74
76128;BME280;64873;50.102;14.434;2023-11-21T07:23:33;98795.75;;;8.45;79.73
76128;BME280;64873;50.102;14.434;2023-11-21T07:25:59;98802.72;;;8.46;79.84
76128;BME280;64873;50.102;14.434;2023-11-21T07:28:25;98799.44;;;8.44;79.66
76128;BME280;64873;50.102;14.434;2023-11-21T07:30:51;98790.88;;;8.35;80.17
76128;BME280;64873;50.102;14.434;2023-11-21T07:33:16;98797.75;;;8.56;79.56
76128;BME280;64873;50.102;14.434;2023-11-21T07:35:42;98800.59;;;8.54;79.61
76128;BME280;64873;50.102;14.434;2023-11-21T07:38:08;98800.22;;;8.51;79.71
76128;BME280;64873;50.102;14.434;2023-11-21T07:40:33;98799.88;;;8.41;79.81
76128;BME280;64873;50.102;14.434;2023-11-21T07:42:59;98802.09;;;8.44;81.56
76128;BME280;64873;50.102;14.434;2023-11-21T07:45:25;98803.31;;;8.48;80.03
76128;BME280;64873;50.102;14.434;2023-11-21T07:47:55;98798.31;;;8.58;80.28
76128;BME280;64873;50.102;14.434;2023-11-21T07:50:22;98803.00;;;8.63;79.21
76128;BME280;64873;50.102;14.434;2023-11-21T07:52:48;98807.53;;;8.62;79.23
76128;BME280;64873;50.102;14.434;2023-11-21T07:55:15;98805.69;;;8.63;78.49
76128;BME280;64873;50.102;14.434;2023-11-21T07:57:41;98807.47;;;8.69;79.37
76128;BME280;64873;50.102;14.434;2023-11-21T08:00:07;98815.47;;;8.69;78.41
76128;BME280;64873;50.102;14.434;2023-11-21T08:02:37;98812.31;;;8.78;78.34
76128;BME280;64873;50.102;14.434;2023-11-21T08:05:03;98812.13;;;8.73;79.03
76128;BME280;64873;50.102;14.434;2023-11-21T08:07:29;98805.75;;;8.81;77.32
76128;BME280;64873;50.102;14.434;2023-11-21T08:09:54;98810.69;;;8.77;78.03
76128;BME280;64873;50.102;14.434;2023-11-21T08:12:21;98813.03;;;8.92;77.81
76128;BME280;64873;50.102;14.434;2023-11-21T08:14:47;98814.31;;;8.83;77.57
76128;BME280;64873;50.102;14.434;2023-11-21T08:17:12;98813.97;;;8.79;77.20
76128;BME280;64873;50.102;14.434;2023-11-21T08:19:39;98813.22;;;8.91;76.92
76128;BME280;64873;50.102;14.434;2023-11-21T08:22:04;98813.22;;;8.97;76.49
76128;BME280;64873;50.102;14.434;2023-11-21T08:24:32;98805.09;;;8.86;76.37
76128;BME280;64873;50.102;14.434;2023-11-21T08:26:58;98822.50;;;8.88;76.35
76128;BME280;64873;50.102;14.434;2023-11-21T08:29:23;98812.06;;;8.87;76.74
76128;BME280;64873;50.102;14.434;2023-11-21T08:31:49;98824.06;;;8.96;76.46
76128;BME280;64873;50.102;14.434;2023-11-21T08:34:14;98823.66;;;8.99;76.01
76128;BME280;64873;50.102;14.434;2023-11-21T08:36:43;98817.44;;;9.05;75.67
76128;BME280;64873;50.102;14.434;2023-11-21T08:39:09;98829.31;;;9.09;75.13
76128;BME280;64873;50.102;14.434;2023-11-21T08:41:35;98824.41;;;9.06;75.48
76128;BME280;64873;50.102;14.434;2023-11-21T08:44:02;98826.09;;;9.00;75.74
76128;BME280;64873;50.102;14.434;2023-11-21T08:46:29;98822.31;;;9.08;75.53
76128;BME280;64873;50.102;14.434;2023-11-21T08:48:54;98826.47;;;9.04;75.37
76128;BME280;64873;50.102;14.434;2023-11-21T08:51:19;98836.69;;;9.07;75.22
76128;BME280;64873;50.102;14.434;2023-11-21T08:53:45;98839.97;;;9.09;75.34
76128;BME280;64873;50.102;14.434;2023-11-21T08:56:14;98842.41;;;9.11;75.36
76128;BME280;64873;50.102;14.434;2023-11-21T08:58:39;98853.44;;;9.14;75.02
76128;BME280;64873;50.102;14.434;2023-11-21T09:01:05;98851.97;;;9.18;75.27
76128;BME280;64873;50.102;14.434;2023-11-21T09:03:32;98853.41;;;9.21;75.26
76128;BME280;64873;50.102;14.434;2023-11-21T09:05:59;98846.94;;;9.10;75.35
76128;BME280;64873;50.102;14.434;2023-11-21T09:08:25;98852.69;;;9.07;75.54
76128;BME280;64873;50.102;14.434;2023-11-21T09:10:50;98847.56;;;9.05;75.76
76128;BME280;64873;50.102;14.434;2023-11-21T09:13:16;98853.00;;;9.17;74.91
76128;BME280;64873;50.102;14.434;2023-11-21T09:15:43;98839.09;;;9.15;74.86
76128;BME280;64873;50.102;14.434;2023-11-21T09:18:14;98858.06;;;9.25;74.52
76128;BME280;64873;50.102;14.434;2023-11-21T09:20:40;98859.50;;;9.28;74.44
76128;BME280;64873;50.102;14.434;2023-11-21T09:23:06;98866.22;;;9.30;74.06
76128;BME280;64873;50.102;14.434;2023-11-21T09:25:32;98856.59;;;9.29;74.21
76128;BME280;64873;50.102;14.434;2023-11-21T09:27:58;98865.97;;;9.39;74.06
76128;BME280;64873;50.102;14.434;2023-11-21T09:30:23;98864.91;;;9.40;74.13
76128;BME280;64873;50.102;14.434;2023-11-21T09:32:52;98873.34;;;9.37;73.76
76128;BME280;64873;50.102;14.434;2023-11-21T09:35:18;98875.44;;;9.34;73.92
76128;BME280;64873;50.102;14.434;2023-11-21T09:37:44;98868.53;;;9.27;74.53
76128;BME280;64873;50.102;14.434;2023-11-21T09:40:11;98870.09;;;9.34;73.80
76128;BME280;64873;50.102;14.434;2023-11-21T09:42:40;98880.31;;;9.38;73.39
76128;BME280;64873;50.102;14.434;2023-11-21T09:45:25;98875.84;;;9.31;73.77
76128;BME280;64873;50.102;14.434;2023-11-21T09:47:53;98875.13;;;9.43;73.70
76128;BME280;64873;50.102;14.434;2023-11-21T09:50:20;98886.34;;;9.51;73.25
76128;BME280;64873;50.102;14.434;2023-11-21T09:55:27;98894.69;;;9.61;72.80
76128;BME280;64873;50.102;14.434;2023-11-21T09:58:02;98893.13;;;9.72;71.99
76128;BME280;64873;50.102;14.434;2023-11-21T10:00:29;98898.59;;;9.59;71.90
76128;BME280;64873;50.102;14.434;2023-11-21T10:02:58;98887.91;;;9.59;71.27
76128;BME280;64873;50.102;14.434;2023-11-21T10:05:24;98891.50;;;9.71;71.36
76128;BME280;64873;50.102;14.434;2023-11-21T10:07:50;98885.91;;;9.54;70.09
76128;BME280;64873;50.102;14.434;2023-11-21T10:10:18;98883.03;;;9.56;70.53
76128;BME280;64873;50.102;14.434;2023-11-21T10:12:56;98877.09;;;9.72;69.82
76128;BME280;64873;50.102;14.434;2023-11-21T10:15:22;98874.09;;;9.69;69.20
76128;BME280;64873;50.102;14.434;2023-11-21T10:17:49;98890.44;;;9.72;69.03
76128;BME280;64873;50.102;14.434;2023-11-21T10:20:16;98890.19;;;9.80;68.79
76128;BME280;64873;50.102;14.434;2023-11-21T10:22:43;98892.25;;;9.78;68.55
76128;BME280;64873;50.102;14.434;2023-11-21T10:25:09;98891.06;;;9.74;68.30
76128;BME280;64873;50.102;14.434;2023-11-21T10:27:36;98888.50;;;9.61;68.62
76128;BME280;64873;50.102;14.434;2023-11-21T10:30:05;98887.03;;;9.65;68.15
76128;BME280;64873;50.102;14.434;2023-11-21T10:32:30;98880.88;;;9.65;67.89
76128;BME280;64873;50.102;14.434;2023-11-21T10:34:59;98880.06;;;9.64;68.39
76128;BME280;64873;50.102;14.434;2023-11-21T10:37:34;98884.53;;;9.70;67.67
76128;BME280;64873;50.102;14.434;2023-11-21T10:40:11;98885.84;;;9.61;68.28
76128;BME280;64873;50.102;14.434;2023-11-21T10:42:41;98885.41;;;9.64;68.78
76128;BME280;64873;50.102;14.434;2023-11-21T10:45:08;98881.28;;;9.68;67.80
76128;BME280;64873;50.102;14.434;2023-11-21T10:47:44;98882.75;;;9.64;67.84
76128;BME280;64873;50.102;14.434;2023-11-21T10:50:09;98891.56;;;9.65;67.37
76128;BME280;64873;50.102;14.434;2023-11-21T10:52:42;98885.28;;;9.77;67.21
76128;BME280;64873;50.102;14.434;2023-11-21T10:55:19;98889.44;;;9.73;67.01
76128;BME280;64873;50.102;14.434;2023-11-21T10:57:52;98882.19;;;9.80;66.06
76128;BME280;64873;50.102;14.434;2023-11-21T11:00:18;98890.47;;;9.91;66.08
76128;BME280;64873;50.102;14.434;2023-11-21T11:02:48;98888.09;;;10.01;66.16
76128;BME280;64873;50.102;14.434;2023-11-21T11:05:19;98883.97;;;9.86;66.29
76128;BME280;64873;50.102;14.434;2023-11-21T11:07:48;98876.09;;;9.92;66.54
76128;BME280;64873;50.102;14.434;2023-11-21T11:10:19;98881.28;;;10.05;66.05
76128;BME280;64873;50.102;14.434;2023-11-21T11:12:48;98871.03;;;10.02;65.65
76128;BME280;64873;50.102;14.434;2023-11-21T11:15:16;98877.16;;;10.09;65.68
76128;BME280;64873;50.102;14.434;2023-11-21T11:17:41;98868.09;;;10.10;66.91
76128;BME280;64873;50.102;14.434;2023-11-21T11:20:10;98859.63;;;10.31;66.20
76128;BME280;64873;50.102;14.434;2023-11-21T11:28:18;98872.69;;;10.39;65.48
76128;BME280;64873;50.102;14.434;2023-11-21T11:34:26;98866.47;;;10.27;66.56
76128;BME280;64873;50.102;14.434;2023-11-21T11:37:01;98855.94;;;10.32;65.98
76128;BME280;64873;50.102;14.434;2023-11-21T11:39:38;98868.09;;;10.28;65.16
76128;BME280;64873;50.102;14.434;2023-11-21T11:42:07;98866.31;;;10.22;64.90
76128;BME280;64873;50.102;14.434;2023-11-21T11:47:31;98867.53;;;10.26;65.20
76128;BME280;64873;50.102;14.434;2023-11-21T11:50:07;98884.84;;;10.17;64.45
76128;BME280;64873;50.102;14.434;2023-11-21T11:52:41;98885.00;;;10.04;64.33
76128;BME280;64873;50.102;14.434;2023-11-21T11:55:10;98869.06;;;9.97;62.74
76128;BME280;64873;50.102;14.434;2023-11-21T11:57:36;98877.72;;;9.93;59.57
76128;BME280;64873;50.102;14.434;2023-11-21T12:02:38;98888.63;;;10.09;60.94
76128;BME280;64873;50.102;14.434;2023-11-21T12:05:09;98880.47;;;10.04;61.76
76128;BME280;64873;50.102;14.434;2023-11-21T12:07:45;98885.50;;;9.94;62.94
76128;BME280;64873;50.102;14.434;2023-11-21T12:10:13;98881.56;;;9.78;64.04
76128;BME280;64873;50.102;14.434;2023-11-21T12:12:42;98883.00;;;9.81;64.24
76128;BME280;64873;50.102;14.434;2023-11-21T12:15:09;98876.38;;;9.83;63.97
76128;BME280;64873;50.102;14.434;2023-11-21T12:17:34;98887.66;;;9.85;64.40
76128;BME280;64873;50.102;14.434;2023-11-21T12:20:04;98885.00;;;9.85;64.79
76128;BME280;64873;50.102;14.434;2023-11-21T12:22:31;98870.47;;;9.81;64.77
76128;BME280;64873;50.102;14.434;2023-11-21T12:24:57;98884.09;;;9.73;65.79
76128;BME280;64873;50.102;14.434;2023-11-21T12:27:23;98894.31;;;9.76;66.54
76128;BME280;64873;50.102;14.434;2023-11-21T12:29:48;98891.66;;;9.76;66.83
76128;BME280;64873;50.102;14.434;2023-11-21T12:32:14;98881.28;;;9.68;67.11
76128;BME280;64873;50.102;14.434;2023-11-21T12:34:43;98895.63;;;9.67;67.64
76128;BME280;64873;50.102;14.434;2023-11-21T12:37:08;98887.16;;;9.52;68.04
76128;BME280;64873;50.102;14.434;2023-11-21T12:39:34;98893.72;;;9.56;68.33
76128;BME280;64873;50.102;14.434;2023-11-21T12:41:59;98884.13;;;9.48;68.47
76128;BME280;64873;50.102;14.434;2023-11-21T12:44:25;98893.72;;;9.56;68.79
76128;BME280;64873;50.102;14.434;2023-11-21T12:46:50;98896.22;;;9.51;69.57
76128;BME280;64873;50.102;14.434;2023-11-21T12:49:17;98894.22;;;9.65;69.78
76128;BME280;64873;50.102;14.434;2023-11-21T12:51:45;98888.88;;;9.46;70.07
76128;BME280;64873;50.102;14.434;2023-11-21T12:54:12;98892.72;;;9.50;69.80
76128;BME280;64873;50.102;14.434;2023-11-21T12:56:41;98893.09;;;9.54;70.03
76128;BME280;64873;50.102;14.434;2023-11-21T12:59:06;98886.59;;;9.50;70.71
76128;BME280;64873;50.102;14.434;2023-11-21T13:01:31;98895.81;;;9.47;71.00
76128;BME280;64873;50.102;14.434;2023-11-21T13:03:57;98904.13;;;9.39;71.47
76128;BME280;64873;50.102;14.434;2023-11-21T13:06:27;98899.38;;;9.41;71.86
76128;BME280;64873;50.102;14.434;2023-11-21T13:08:54;98907.09;;;9.24;72.69
76128;BME280;64873;50.102;14.434;2023-11-21T13:11:20;98912.47;;;9.18;73.13
76128;BME280;64873;50.102;14.434;2023-11-21T13:13:45;98902.03;;;9.16;73.21
76128;BME280;64873;50.102;14.434;2023-11-21T13:16:11;98905.97;;;9.07;74.28